createdAt,value
2023-02-11T00:01:14.691Z,17.75
2023-02-11T00:03:42.522Z,16.27
2023-02-11T00:06:11.953Z,13.45
2023-02-11T00:08:40.358Z,18.55
2023-02-11T00:11:08.658Z,13.35
2023-02-11T00:13:36.447Z,13.68
2023-02-11T00:16:09.852Z,18.13
2023-02-11T00:18:37.838Z,17.25
2023-02-11T00:21:09.832Z,15.77
2023-02-11T00:23:38.392Z,19.23
2023-02-11T00:26:12.698Z,16.17
2023-02-11T00:28:41.574Z,15.43
2023-02-11T00:31:14.052Z,11.45
2023-02-11T00:33:42.073Z,15.60
2023-02-11T00:36:14.515Z,20.48
2023-02-11T00:38:43.976Z,16.25
2023-02-11T00:41:13.055Z,23.00
2023-02-11T00:43:40.924Z,16.50
2023-02-11T00:46:09.484Z,19.75
2023-02-11T00:48:38.772Z,18.33
2023-02-11T00:51:06.875Z,19.83
2023-02-11T00:53:34.797Z,15.32
2023-02-11T00:56:03.055Z,15.90
2023-02-11T00:58:30.971Z,15.57
2023-02-11T01:00:58.947Z,14.27
2023-02-11T01:03:26.816Z,14.63
2023-02-11T01:05:56.382Z,16.60
2023-02-11T01:08:24.270Z,16.58
2023-02-11T01:10:57.012Z,12.02
2023-02-11T01:13:25.683Z,16.55
2023-02-11T01:15:55.125Z,13.27
2023-02-11T01:18:22.978Z,13.98
2023-02-11T01:20:52.581Z,16.48
2023-02-11T01:23:21.914Z,15.32
2023-02-11T01:25:50.559Z,18.35
2023-02-11T01:28:19.952Z,16.15
2023-02-11T01:30:47.964Z,15.27
2023-02-11T01:33:16.230Z,19.13
2023-02-11T01:35:44.582Z,21.67
2023-02-11T01:38:17.557Z,17.73
2023-02-11T01:40:52.437Z,14.98
2023-02-11T01:43:21.034Z,22.60
2023-02-11T01:45:59.892Z,17.75
2023-02-11T01:48:31.178Z,16.67
2023-02-11T01:51:05.224Z,16.42
2023-02-11T01:53:51.186Z,21.00
2023-02-11T01:56:39.297Z,21.83
2023-02-11T01:59:12.462Z,14.30
2023-02-11T02:01:45.913Z,13.05
2023-02-11T02:04:17.617Z,14.63
2023-02-11T02:06:51.756Z,14.15
2023-02-11T02:09:24.177Z,14.35
2023-02-11T02:11:53.403Z,16.85
2023-02-11T02:14:21.429Z,14.68
2023-02-11T02:16:49.508Z,18.65
2023-02-11T02:19:55.031Z,13.75
2023-02-11T02:22:54.197Z,14.88
2023-02-11T02:25:55.766Z,17.60
2023-02-11T02:28:53.150Z,14.38
2023-02-11T02:31:42.640Z,15.68
2023-02-11T02:34:16.703Z,17.85
2023-02-11T02:36:52.934Z,17.80
2023-02-11T02:39:25.043Z,19.02
2023-02-11T02:41:54.708Z,13.60
2023-02-11T02:44:22.735Z,16.77
2023-02-11T02:46:50.583Z,15.48
2023-02-11T02:49:19.740Z,17.70
2023-02-11T02:52:11.871Z,16.67
2023-02-11T02:54:59.989Z,17.17
2023-02-11T02:57:34.409Z,20.27
2023-02-11T03:00:15.745Z,18.15
2023-02-11T03:02:57.207Z,16.98
2023-02-11T03:05:34.670Z,16.75
2023-02-11T03:08:09.406Z,18.42
2023-02-11T03:10:41.299Z,19.05
2023-02-11T03:13:10.152Z,20.52
2023-02-11T03:15:41.876Z,19.73
2023-02-11T03:18:12.597Z,23.42
2023-02-11T03:20:44.448Z,20.88
2023-02-11T03:23:15.850Z,18.65
2023-02-11T03:25:51.430Z,16.42
2023-02-11T03:28:26.662Z,17.33
2023-02-11T03:31:01.051Z,18.23
2023-02-11T03:33:37.858Z,19.98
2023-02-11T03:36:12.018Z,20.40
2023-02-11T03:38:45.947Z,18.27
2023-02-11T03:41:17.174Z,17.15
2023-02-11T03:43:47.148Z,18.02
2023-02-11T03:46:17.767Z,21.10
2023-02-11T03:48:50.492Z,23.17
2023-02-11T03:51:22.021Z,20.33
2023-02-11T03:53:54.010Z,17.70
2023-02-11T03:56:24.620Z,18.17
2023-02-11T03:58:52.478Z,21.67
2023-02-11T04:01:20.312Z,17.73
2023-02-11T04:03:48.163Z,20.33
2023-02-11T04:06:16.021Z,23.08
2023-02-11T04:08:45.184Z,18.90
2023-02-11T04:11:12.976Z,22.30
2023-02-11T04:13:40.789Z,18.70
2023-02-11T04:16:08.882Z,20.23
2023-02-11T04:18:36.672Z,24.52
2023-02-11T04:21:04.672Z,19.40
2023-02-11T04:23:32.440Z,21.25
2023-02-11T04:26:01.618Z,23.15
2023-02-11T04:28:29.673Z,18.08
2023-02-11T04:30:57.557Z,21.10
2023-02-11T04:33:25.520Z,27.75
2023-02-11T04:35:53.334Z,24.00
2023-02-11T04:38:21.079Z,20.15
2023-02-11T04:40:48.869Z,28.05
2023-02-11T04:43:18.022Z,27.98
2023-02-11T04:45:45.855Z,24.90
2023-02-11T04:48:13.715Z,23.35
2023-02-11T04:50:42.677Z,24.98
2023-02-11T04:53:10.477Z,26.05
2023-02-11T04:55:38.232Z,27.48
2023-02-11T04:58:05.978Z,26.58
2023-02-11T05:00:35.127Z,25.95
2023-02-11T05:03:02.872Z,27.30
2023-02-11T05:05:30.651Z,23.67
2023-02-11T05:07:58.421Z,26.17
2023-02-11T05:10:26.233Z,27.73
2023-02-11T05:12:55.884Z,25.27
2023-02-11T05:15:23.894Z,32.42
2023-02-11T05:17:53.009Z,29.40
2023-02-11T05:20:21.100Z,31.80
2023-02-11T05:22:49.203Z,26.45
2023-02-11T05:25:17.030Z,29.65
2023-02-11T05:27:44.927Z,26.40
2023-02-11T05:30:13.343Z,27.30
2023-02-11T05:32:41.172Z,26.70
2023-02-11T05:35:10.531Z,26.98
2023-02-11T05:37:38.341Z,27.85
2023-02-11T05:40:07.188Z,28.95
2023-02-11T05:42:35.131Z,28.25
2023-02-11T05:45:02.945Z,29.95
2023-02-11T05:47:31.114Z,26.42
2023-02-11T05:49:58.885Z,28.92
2023-02-11T05:52:28.023Z,29.30
2023-02-11T05:54:55.825Z,27.40
2023-02-11T05:57:24.206Z,30.00
2023-02-11T05:59:52.003Z,28.73
2023-02-11T06:02:19.838Z,30.88
2023-02-11T06:04:47.857Z,26.67
2023-02-11T06:07:15.743Z,30.10
2023-02-11T06:09:45.085Z,26.40
2023-02-11T06:12:12.926Z,25.35
2023-02-11T06:14:40.713Z,26.80
2023-02-11T06:17:08.489Z,27.30
2023-02-11T06:19:36.362Z,32.92
2023-02-11T06:22:04.183Z,32.72
2023-02-11T06:24:58.623Z,29.63
2023-02-11T06:27:21.119Z,31.75
2023-02-11T06:29:49.629Z,30.20
2023-02-11T06:32:39.567Z,30.23
2023-02-11T06:35:05.507Z,28.98
2023-02-11T06:37:34.749Z,26.73
2023-02-11T06:40:02.531Z,29.75
2023-02-11T06:42:31.702Z,32.28
2023-02-11T06:44:59.507Z,28.85
2023-02-11T06:47:27.269Z,28.83
2023-02-11T06:49:55.057Z,29.92
2023-02-11T06:52:22.875Z,29.65
2023-02-11T06:54:50.646Z,35.08
2023-02-11T06:57:18.404Z,33.63
2023-02-11T06:59:47.523Z,29.80
2023-02-11T07:02:15.457Z,29.52
2023-02-11T07:04:44.035Z,33.13
2023-02-11T07:07:11.768Z,30.67
2023-02-11T07:09:39.580Z,34.15
2023-02-11T07:12:07.852Z,32.58
2023-02-11T07:14:35.686Z,31.48
2023-02-11T07:17:05.138Z,33.20
2023-02-11T07:19:33.035Z,34.42
2023-02-11T07:22:00.898Z,33.70
2023-02-11T07:24:28.672Z,35.60
2023-02-11T07:26:56.490Z,29.25
2023-02-11T07:29:24.282Z,31.65
2023-02-11T07:31:52.157Z,32.92
2023-02-11T07:34:21.397Z,32.05
2023-02-11T07:36:49.943Z,35.97
2023-02-11T07:39:17.782Z,33.58
2023-02-11T07:41:47.735Z,32.22
2023-02-11T07:44:15.819Z,32.83
2023-02-11T07:46:45.206Z,30.92
2023-02-11T07:49:13.574Z,34.35
2023-02-11T07:51:43.161Z,29.73
2023-02-11T07:54:12.422Z,33.10
2023-02-11T07:56:40.248Z,31.33
2023-02-11T07:59:08.106Z,34.60
2023-02-11T08:01:35.900Z,33.78
2023-02-11T08:04:05.093Z,32.28
2023-02-11T08:06:35.025Z,32.80
2023-02-11T08:09:07.859Z,33.53
2023-02-11T08:11:36.152Z,31.67
2023-02-11T08:14:04.198Z,40.10
2023-02-11T08:16:34.352Z,29.92
2023-02-11T08:19:04.162Z,33.88
2023-02-11T08:21:32.423Z,31.38
2023-02-11T08:24:02.098Z,32.60
2023-02-11T08:26:34.682Z,32.15
2023-02-11T08:29:06.407Z,31.75
2023-02-11T08:31:36.526Z,34.65
2023-02-11T08:34:04.908Z,34.38
2023-02-11T08:36:34.222Z,35.05
2023-02-11T08:39:18.210Z,30.30
2023-02-11T08:41:49.458Z,32.45
2023-02-11T08:44:17.795Z,33.17
2023-02-11T08:46:45.576Z,40.70
2023-02-11T08:49:13.400Z,34.47
2023-02-11T08:51:41.205Z,31.20
2023-02-11T08:54:10.258Z,32.03
2023-02-11T08:56:38.627Z,35.67
2023-02-11T08:59:09.153Z,30.80
2023-02-11T09:01:37.139Z,34.58
2023-02-11T09:04:05.252Z,34.53
2023-02-11T09:06:33.105Z,34.47
2023-02-11T09:09:00.916Z,26.98
2023-02-11T09:11:31.581Z,34.65
2023-02-11T09:14:01.333Z,30.02
2023-02-11T09:16:34.449Z,30.55
2023-02-11T09:19:04.525Z,33.42
2023-02-11T09:21:32.677Z,28.60
2023-02-11T09:24:00.507Z,29.35
2023-02-11T09:26:30.333Z,31.73
2023-02-11T09:28:58.937Z,31.35
2023-02-11T09:31:28.383Z,29.45
2023-02-11T09:33:59.726Z,28.83
2023-02-11T09:36:29.717Z,29.52
2023-02-11T09:38:59.458Z,29.88
2023-02-11T09:41:40.554Z,34.65
2023-02-11T09:44:11.229Z,31.73
2023-02-11T09:46:43.166Z,28.67
2023-02-11T09:49:20.844Z,25.05
2023-02-11T09:51:53.464Z,24.73
2023-02-11T09:54:39.816Z,25.80
2023-02-11T09:57:22.917Z,28.35
2023-02-11T09:59:54.646Z,25.85
2023-02-11T10:02:28.483Z,26.90
2023-02-11T10:05:19.288Z,25.08
2023-02-11T10:07:52.514Z,27.63
2023-02-11T10:10:38.075Z,22.88
2023-02-11T10:13:22.598Z,24.83
2023-02-11T10:15:59.460Z,24.27
2023-02-11T10:18:41.494Z,23.25
2023-02-11T10:21:21.944Z,24.40
2023-02-11T10:23:53.777Z,22.85
2023-02-11T10:26:22.305Z,22.13
2023-02-11T10:28:54.534Z,23.35
2023-02-11T10:31:26.132Z,20.92
2023-02-11T10:34:00.851Z,23.27
2023-02-11T10:36:33.914Z,22.70
2023-02-11T10:39:03.363Z,20.58
2023-02-11T10:41:35.015Z,19.67
2023-02-11T10:44:02.881Z,22.33
2023-02-11T10:46:34.454Z,19.02
2023-02-11T10:49:03.400Z,17.40
2023-02-11T10:51:34.440Z,17.75
2023-02-11T10:54:19.508Z,19.17
2023-02-11T10:56:50.815Z,19.05
2023-02-11T10:59:25.747Z,17.00
2023-02-11T11:01:55.437Z,19.23
2023-02-11T11:04:36.460Z,17.95
2023-02-11T11:07:19.758Z,19.45
2023-02-11T11:09:56.701Z,18.27
2023-02-11T11:14:58.083Z,19.40
2023-02-11T11:17:29.111Z,18.70
2023-02-11T11:22:41.636Z,17.70
2023-02-11T11:25:23.025Z,17.48
2023-02-11T11:27:52.200Z,18.13
2023-02-11T11:30:20.951Z,18.48
2023-02-11T11:32:48.797Z,17.58
2023-02-11T11:35:26.605Z,17.25
2023-02-11T11:38:01.773Z,14.95
2023-02-11T11:40:32.241Z,16.52
2023-02-11T11:43:06.865Z,15.43
2023-02-11T11:45:34.679Z,16.42
2023-02-11T11:48:07.798Z,15.18
2023-02-11T11:50:38.281Z,16.13
2023-02-11T11:53:14.935Z,13.25
2023-02-11T11:55:46.976Z,14.85
2023-02-11T11:58:18.778Z,14.23
2023-02-11T12:00:55.326Z,13.52
2023-02-11T12:03:49.541Z,14.40
2023-02-11T12:06:27.383Z,14.77
2023-02-11T12:09:05.971Z,13.15
2023-02-11T12:11:44.353Z,13.50
2023-02-11T12:14:21.524Z,14.27
2023-02-11T12:16:58.304Z,13.00
2023-02-11T12:19:59.610Z,11.43
2023-02-11T12:22:41.817Z,12.25
2023-02-11T12:25:28.147Z,13.13
2023-02-11T12:28:07.281Z,12.43
2023-02-11T12:31:02.250Z,11.15
2023-02-11T12:33:49.538Z,11.57
2023-02-11T12:36:27.419Z,12.38
2023-02-11T12:39:07.061Z,11.65
2023-02-11T12:42:06.728Z,13.30
2023-02-11T12:44:43.551Z,12.40
2023-02-11T12:47:21.479Z,11.32
2023-02-11T12:50:01.836Z,13.20
2023-02-11T12:52:44.132Z,11.48
2023-02-11T12:55:22.984Z,11.20
2023-02-11T12:57:57.168Z,9.75
2023-02-11T13:00:29.047Z,11.35
2023-02-11T13:03:05.173Z,11.93
2023-02-11T13:05:40.548Z,12.77
2023-02-11T13:08:15.602Z,11.85
2023-02-11T13:10:47.949Z,10.05
2023-02-11T13:13:22.428Z,9.80
2023-02-11T13:15:54.778Z,10.70
2023-02-11T13:18:33.605Z,9.63
2023-02-11T13:21:17.716Z,11.38
2023-02-11T13:23:51.804Z,10.55
2023-02-11T13:26:26.884Z,11.85
2023-02-11T13:29:07.862Z,11.05
2023-02-11T13:31:35.811Z,10.05
2023-02-11T13:34:03.882Z,11.65
2023-02-11T13:36:34.231Z,10.80
2023-02-11T13:39:05.703Z,9.52
2023-02-11T13:41:37.135Z,11.02
2023-02-11T13:44:22.331Z,11.05
2023-02-11T13:46:57.192Z,11.32
2023-02-11T13:49:30.723Z,11.35
2023-02-11T13:52:00.186Z,12.25
2023-02-11T13:54:33.324Z,10.00
2023-02-11T13:57:26.326Z,12.02
2023-02-11T13:59:57.133Z,11.88
2023-02-11T14:02:46.433Z,9.65
2023-02-11T14:05:40.912Z,11.45
2023-02-11T14:08:33.659Z,10.77
2023-02-11T14:11:03.689Z,9.68
2023-02-11T14:13:32.773Z,11.82
2023-02-11T14:16:11.097Z,12.20
2023-02-11T14:19:01.842Z,15.32
2023-02-11T14:21:36.754Z,11.35
2023-02-11T14:24:47.352Z,9.25
2023-02-11T14:27:22.821Z,10.85
2023-02-11T14:30:10.401Z,10.80
2023-02-11T14:32:51.690Z,11.98
2023-02-11T14:35:28.012Z,13.63
2023-02-11T14:38:03.068Z,10.80
2023-02-11T14:40:34.983Z,12.45
2023-02-11T14:43:13.134Z,12.35
2023-02-11T14:45:41.539Z,12.80
2023-02-11T14:48:17.043Z,11.00
2023-02-11T14:50:49.900Z,13.95
2023-02-11T14:53:21.160Z,13.13
2023-02-11T14:58:20.972Z,10.57
2023-02-11T15:00:55.043Z,12.18
2023-02-11T15:03:33.976Z,11.52
2023-02-11T15:06:04.706Z,9.27
2023-02-11T15:08:33.412Z,12.50
2023-02-11T15:11:03.256Z,10.90
2023-02-11T15:13:33.925Z,9.75
2023-02-11T15:16:06.546Z,11.63
2023-02-11T15:18:40.178Z,12.18
2023-02-11T15:21:09.142Z,10.02
2023-02-11T15:23:38.989Z,9.98
2023-02-11T15:26:14.341Z,11.18
2023-02-11T15:28:52.509Z,9.45
2023-02-11T15:31:23.276Z,11.00
2023-02-11T15:33:53.292Z,10.65
2023-02-11T15:36:23.788Z,11.65
2023-02-11T15:39:30.421Z,10.65
2023-02-11T15:41:58.378Z,9.60
2023-02-11T15:44:30.817Z,12.70
2023-02-11T15:46:59.019Z,11.68
2023-02-11T15:49:28.448Z,12.95
2023-02-11T15:51:58.043Z,11.65
2023-02-11T15:54:29.360Z,11.20
2023-02-11T15:57:02.706Z,12.60
2023-02-11T15:59:35.328Z,11.45
2023-02-11T16:02:09.221Z,9.82
2023-02-11T16:04:38.907Z,13.55
2023-02-11T16:07:06.780Z,13.70
2023-02-11T16:09:36.292Z,13.43
2023-02-11T16:12:07.665Z,14.48
2023-02-11T16:14:39.260Z,11.73
2023-02-11T16:17:10.485Z,12.23
2023-02-11T16:19:44.998Z,12.23
2023-02-11T16:22:18.068Z,9.93
2023-02-11T16:24:48.623Z,10.57
2023-02-11T16:27:23.713Z,11.15
2023-02-11T16:29:52.643Z,15.23
2023-02-11T16:32:23.326Z,10.75
2023-02-11T16:34:55.067Z,11.75
2023-02-11T16:37:22.837Z,11.35
2023-02-11T16:39:51.026Z,13.75
2023-02-11T16:42:18.819Z,10.35
2023-02-11T16:44:46.644Z,11.80
2023-02-11T16:47:21.504Z,10.23
2023-02-11T16:49:49.456Z,11.85
2023-02-11T16:52:20.289Z,11.88
2023-02-11T16:54:48.095Z,10.32
2023-02-11T16:57:17.766Z,12.85
2023-02-11T16:59:46.055Z,12.52
2023-02-11T17:02:17.347Z,12.75
2023-02-11T17:04:45.684Z,13.05
2023-02-11T17:07:13.577Z,10.80
2023-02-11T17:09:42.750Z,12.65
2023-02-11T17:12:11.369Z,12.30
2023-02-11T17:14:47.297Z,13.73
2023-02-11T17:17:15.219Z,13.48
2023-02-11T17:19:43.326Z,11.93
2023-02-11T17:22:12.753Z,11.88
2023-02-11T17:24:47.191Z,13.30
2023-02-11T17:27:17.461Z,11.40
2023-02-11T17:29:45.255Z,13.27
2023-02-11T17:32:13.170Z,13.57
2023-02-11T17:34:40.982Z,14.07
2023-02-11T17:37:09.303Z,11.35
2023-02-11T17:39:37.313Z,12.75
2023-02-11T17:42:07.245Z,12.35
2023-02-11T17:44:35.732Z,13.77
2023-02-11T17:47:03.515Z,12.43
2023-02-11T17:49:31.332Z,12.10
2023-02-11T17:51:59.138Z,14.55
2023-02-11T17:54:26.936Z,12.15
2023-02-11T17:56:58.115Z,12.55
2023-02-11T17:59:31.601Z,13.77
2023-02-11T18:01:59.732Z,15.25
2023-02-11T18:04:27.589Z,13.60
2023-02-11T18:06:55.495Z,15.00
2023-02-11T18:09:23.261Z,14.30
2023-02-11T18:11:52.568Z,15.57
2023-02-11T18:14:21.014Z,15.48
2023-02-11T18:16:52.230Z,13.88
2023-02-11T18:19:21.012Z,15.80
2023-02-11T18:21:48.915Z,14.10
2023-02-11T18:24:17.096Z,13.43
2023-02-11T18:26:44.939Z,24.95
2023-02-11T18:29:12.693Z,21.10
2023-02-11T18:31:40.553Z,16.23
2023-02-11T18:34:10.667Z,16.15
2023-02-11T18:36:38.853Z,14.88
2023-02-11T18:39:07.186Z,15.30
2023-02-11T18:41:35.004Z,16.92
2023-02-11T18:44:04.532Z,14.05
2023-02-11T18:46:32.407Z,15.82
2023-02-11T18:49:00.307Z,14.57
2023-02-11T18:51:31.924Z,15.40
2023-02-11T18:53:59.901Z,15.68
2023-02-11T18:56:28.710Z,16.50
2023-02-11T18:58:57.256Z,15.60
2023-02-11T19:01:27.408Z,15.27
2023-02-11T19:03:57.218Z,18.27
2023-02-11T19:06:26.762Z,15.50
2023-02-11T19:08:59.909Z,15.52
2023-02-11T19:11:42.447Z,15.90
2023-02-11T19:14:11.196Z,15.60
2023-02-11T19:16:39.704Z,14.55
2023-02-11T19:19:08.859Z,17.42
2023-02-11T19:21:37.717Z,15.07
2023-02-11T19:24:09.366Z,13.13
2023-02-11T19:26:38.082Z,16.40
2023-02-11T19:29:07.067Z,15.18
2023-02-11T19:31:35.394Z,15.23
2023-02-11T19:34:04.719Z,18.45
2023-02-11T19:36:32.637Z,16.40
2023-02-11T19:39:00.970Z,18.02
2023-02-11T19:41:31.027Z,16.77
2023-02-11T19:43:59.002Z,17.48
2023-02-11T19:46:28.696Z,17.40
2023-02-11T19:48:56.725Z,19.50
2023-02-11T19:51:24.539Z,19.38
2023-02-11T19:53:52.384Z,14.20
2023-02-11T19:56:20.984Z,17.00
2023-02-11T19:58:50.352Z,14.50
2023-02-11T20:01:20.442Z,15.30
2023-02-11T20:03:50.417Z,14.60
2023-02-11T20:06:21.566Z,14.57
2023-02-11T20:11:18.358Z,15.77
2023-02-11T20:13:46.675Z,16.85
2023-02-11T20:16:18.678Z,16.67
2023-02-11T20:18:47.808Z,16.05
2023-02-11T20:21:17.749Z,17.25
2023-02-11T20:23:46.584Z,15.77
2023-02-11T20:26:16.295Z,14.25
2023-02-11T20:28:44.483Z,15.02
2023-02-11T20:31:13.190Z,14.85
2023-02-11T20:33:43.659Z,16.08
2023-02-11T20:36:15.868Z,17.05
2023-02-11T20:41:14.351Z,18.63
2023-02-11T20:43:45.795Z,17.02
2023-02-11T20:46:14.889Z,16.90
2023-02-11T20:48:44.414Z,16.20
2023-02-11T20:51:14.510Z,17.27
2023-02-11T20:53:44.347Z,15.93
2023-02-11T20:56:13.313Z,15.32
2023-02-11T20:58:41.712Z,15.48
2023-02-11T21:01:09.879Z,15.27
2023-02-11T21:03:37.824Z,15.85
2023-02-11T21:06:10.129Z,17.80
2023-02-11T21:08:39.760Z,16.58
2023-02-11T21:11:08.838Z,17.80
2023-02-11T21:13:36.926Z,17.20
2023-02-11T21:16:05.716Z,14.88
2023-02-11T21:18:34.212Z,15.32
2023-02-11T21:21:02.385Z,17.60
2023-02-11T21:23:31.584Z,18.02
2023-02-11T21:25:59.343Z,17.60
2023-02-11T21:28:27.353Z,16.48
2023-02-11T21:30:56.598Z,18.17
2023-02-11T21:33:25.279Z,19.65
2023-02-11T21:35:56.186Z,17.20
2023-02-11T21:38:24.299Z,15.82
2023-02-11T21:40:53.980Z,19.75
2023-02-11T21:43:25.611Z,16.52
2023-02-11T21:45:54.696Z,18.58
2023-02-11T21:48:23.751Z,18.45
2023-02-11T21:50:51.563Z,20.63
2023-02-11T21:53:19.453Z,17.55
2023-02-11T21:55:47.289Z,17.38
2023-02-11T21:58:16.438Z,18.35
2023-02-11T22:00:44.235Z,18.70
2023-02-11T22:03:12.955Z,16.38
2023-02-11T22:05:41.563Z,17.42
2023-02-11T22:08:09.366Z,15.63
2023-02-11T22:10:37.176Z,16.92
2023-02-11T22:13:04.985Z,16.90
2023-02-11T22:15:34.179Z,18.50
2023-02-11T22:18:02.001Z,19.35
2023-02-11T22:20:29.847Z,19.52
2023-02-11T22:22:57.661Z,21.17
2023-02-11T22:25:25.453Z,22.30
2023-02-11T22:27:53.232Z,19.80
2023-02-11T22:30:21.313Z,21.70
2023-02-11T22:32:50.918Z,19.63
2023-02-11T22:35:18.732Z,19.98
2023-02-11T22:37:46.516Z,19.40
2023-02-11T22:40:14.812Z,18.70
2023-02-11T22:42:42.608Z,19.50
2023-02-11T22:45:10.726Z,19.17
2023-02-11T22:47:38.942Z,20.60
2023-02-11T22:50:08.923Z,23.90
2023-02-11T22:52:37.120Z,18.20
2023-02-11T22:55:05.508Z,21.42
2023-02-11T22:57:33.330Z,18.50
2023-02-11T23:00:01.132Z,20.35
2023-02-11T23:02:29.033Z,21.85
2023-02-11T23:04:56.831Z,18.50
2023-02-11T23:07:26.049Z,21.38
2023-02-11T23:09:53.837Z,21.55
2023-02-11T23:12:21.661Z,20.38
2023-02-11T23:14:49.457Z,19.13
2023-02-11T23:17:17.296Z,21.00
2023-02-11T23:19:45.049Z,21.30
2023-02-11T23:22:12.841Z,18.95
2023-02-11T23:24:42.006Z,21.98
2023-02-11T23:27:09.773Z,21.88
2023-02-11T23:29:37.654Z,21.52
2023-02-11T23:32:05.818Z,20.60
2023-02-11T23:34:33.632Z,19.65
2023-02-11T23:37:01.543Z,19.60
2023-02-11T23:39:29.491Z,20.98
2023-02-11T23:41:59.527Z,22.00
2023-02-11T23:44:27.551Z,19.63
2023-02-11T23:46:55.357Z,18.00
2023-02-11T23:49:23.159Z,21.13
2023-02-11T23:51:50.970Z,21.13
2023-02-11T23:54:18.760Z,23.75
2023-02-11T23:56:46.930Z,20.98
2023-02-11T23:59:17.015Z,20.50
